sensor_id;sensor_type;location;lat;lon;timestamp;pressure;altitude;pressure_sealevel;temperature;humidity
63190;BME280;49286;44.460;26.114;2023-04-25T00:00:41;99589.09;;;13.97;100.00
63190;BME280;49286;44.460;26.114;2023-04-25T00:03:06;99538.09;;;13.31;100.00
63190;BME280;49286;44.460;26.114;2023-04-25T00:05:33;99630.22;;;14.04;100.00
63190;BME280;49286;44.460;26.114;2023-04-25T00:07:59;99515.72;;;13.47;100.00
63190;BME280;49286;44.460;26.114;2023-04-25T00:10:25;99603.59;;;14.13;100.00
63190;BME280;49286;44.460;26.114;2023-04-25T00:12:51;99539.41;;;13.82;100.00
63190;BME280;49286;44.460;26.114;2023-04-25T00:15:16;99526.38;;;13.76;100.00
63190;BME280;49286;44.460;26.114;2023-04-25T00:17:42;99609.31;;;14.29;100.00
63190;BME280;49286;44.460;26.114;2023-04-25T00:20:08;99543.59;;;13.89;100.00
63190;BME280;49286;44.460;26.114;2023-04-25T00:22:35;99525.53;;;13.75;100.00
63190;BME280;49286;44.460;26.114;2023-04-25T00:25:06;99591.25;;;14.14;100.00
63190;BME280;49286;44.460;26.114;2023-04-25T00:27:31;99663.44;;;14.44;100.00
63190;BME280;49286;44.460;26.114;2023-04-25T00:29:57;99534.41;;;13.71;100.00
63190;BME280;49286;44.460;26.114;2023-04-25T00:32:23;99645.28;;;14.33;100.00
63190;BME280;49286;44.460;26.114;2023-04-25T00:34:48;99527.34;;;13.73;100.00
63190;BME280;49286;44.460;26.114;2023-04-25T00:37:14;99526.41;;;13.74;100.00
63190;BME280;49286;44.460;26.114;2023-04-25T00:39:39;99525.63;;;13.72;100.00
63190;BME280;49286;44.460;26.114;2023-04-25T00:42:05;99624.19;;;14.32;100.00
63190;BME280;49286;44.460;26.114;2023-04-25T00:44:31;99518.09;;;13.58;100.00
63190;BME280;49286;44.460;26.114;2023-04-25T00:46:57;99602.47;;;14.22;100.00
63190;BME280;49286;44.460;26.114;2023-04-25T00:49:23;99635.28;;;14.45;100.00
63190;BME280;49286;44.460;26.114;2023-04-25T00:51:49;99636.28;;;14.41;100.00
63190;BME280;49286;44.460;26.114;2023-04-25T00:54:14;99586.88;;;14.14;100.00
63190;BME280;49286;44.460;26.114;2023-04-25T00:56:41;99604.06;;;14.28;100.00
63190;BME280;49286;44.460;26.114;2023-04-25T00:59:06;99506.28;;;13.71;100.00
63190;BME280;49286;44.460;26.114;2023-04-25T01:01:33;99618.91;;;14.32;100.00
63190;BME280;49286;44.460;26.114;2023-04-25T01:04:00;99627.03;;;14.26;100.00
63190;BME280;49286;44.460;26.114;2023-04-25T01:06:26;99633.22;;;14.23;100.00
63190;BME280;49286;44.460;26.114;2023-04-25T01:08:52;99639.25;;;14.28;100.00
63190;BME280;49286;44.460;26.114;2023-04-25T01:11:18;99627.34;;;14.13;100.00
63190;BME280;49286;44.460;26.114;2023-04-25T01:13:44;99615.91;;;14.13;100.00
63190;BME280;49286;44.460;26.114;2023-04-25T01:16:09;99656.31;;;14.15;100.00
63190;BME280;49286;44.460;26.114;2023-04-25T01:18:36;99541.84;;;13.57;100.00
63190;BME280;49286;44.460;26.114;2023-04-25T01:21:12;99572.16;;;13.73;100.00
63190;BME280;49286;44.460;26.114;2023-04-25T01:23:39;99490.22;;;13.48;100.00
63190;BME280;49286;44.460;26.114;2023-04-25T01:26:06;99569.50;;;14.06;100.00
63190;BME280;49286;44.460;26.114;2023-04-25T01:28:34;99462.34;;;13.05;100.00
63190;BME280;49286;44.460;26.114;2023-04-25T01:31:00;99428.69;;;13.16;100.00
63190;BME280;49286;44.460;26.114;2023-04-25T01:33:26;99549.88;;;13.85;100.00
63190;BME280;49286;44.460;26.114;2023-04-25T01:35:51;99429.47;;;12.50;100.00
63190;BME280;49286;44.460;26.114;2023-04-25T01:38:17;99535.13;;;13.45;100.00
63190;BME280;49286;44.460;26.114;2023-04-25T01:40:44;99539.78;;;13.68;100.00
63190;BME280;49286;44.460;26.114;2023-04-25T01:43:10;99499.13;;;13.44;100.00
63190;BME280;49286;44.460;26.114;2023-04-25T01:45:41;99427.31;;;13.01;100.00
63190;BME280;49286;44.460;26.114;2023-04-25T01:48:08;99496.31;;;13.50;100.00
63190;BME280;49286;44.460;26.114;2023-04-25T01:50:34;99414.94;;;13.05;100.00
63190;BME280;49286;44.460;26.114;2023-04-25T01:52:59;99452.88;;;13.32;100.00
63190;BME280;49286;44.460;26.114;2023-04-25T01:55:27;99508.31;;;13.62;100.00
63190;BME280;49286;44.460;26.114;2023-04-25T01:57:52;99515.63;;;13.50;100.00
63190;BME280;49286;44.460;26.114;2023-04-25T02:00:18;99522.88;;;13.42;100.00
63190;BME280;49286;44.460;26.114;2023-04-25T02:02:43;99522.03;;;13.42;100.00
63190;BME280;49286;44.460;26.114;2023-04-25T02:05:09;99391.94;;;12.77;100.00
63190;BME280;49286;44.460;26.114;2023-04-25T02:07:35;99365.56;;;12.44;100.00
63190;BME280;49286;44.460;26.114;2023-04-25T02:10:00;99470.75;;;13.19;100.00
63190;BME280;49286;44.460;26.114;2023-04-25T02:12:27;99492.63;;;12.87;100.00
63190;BME280;49286;44.460;26.114;2023-04-25T02:14:53;99490.84;;;12.87;100.00
63190;BME280;49286;44.460;26.114;2023-04-25T02:17:18;99436.63;;;12.43;100.00
63190;BME280;49286;44.460;26.114;2023-04-25T02:19:44;99444.53;;;12.43;100.00
63190;BME280;49286;44.460;26.114;2023-04-25T02:22:10;99396.47;;;12.36;100.00
63190;BME280;49286;44.460;26.114;2023-04-25T02:24:35;99427.59;;;12.55;100.00
63190;BME280;49286;44.460;26.114;2023-04-25T02:27:01;99407.53;;;12.51;100.00
63190;BME280;49286;44.460;26.114;2023-04-25T02:29:26;99309.75;;;11.96;100.00
63190;BME280;49286;44.460;26.114;2023-04-25T02:31:52;99443.00;;;12.72;100.00
63190;BME280;49286;44.460;26.114;2023-04-25T02:34:17;99336.78;;;12.01;100.00
63190;BME280;49286;44.460;26.114;2023-04-25T02:36:43;99293.56;;;11.75;100.00
63190;BME280;49286;44.460;26.114;2023-04-25T02:39:08;99338.34;;;11.71;100.00
63190;BME280;49286;44.460;26.114;2023-04-25T02:41:34;99426.91;;;12.08;100.00
63190;BME280;49286;44.460;26.114;2023-04-25T02:43:59;99428.13;;;11.93;100.00
63190;BME280;49286;44.460;26.114;2023-04-25T02:46:25;99428.56;;;12.13;100.00
63190;BME280;49286;44.460;26.114;2023-04-25T02:48:50;99429.63;;;12.03;100.00
63190;BME280;49286;44.460;26.114;2023-04-25T02:51:16;99395.06;;;11.79;100.00
63190;BME280;49286;44.460;26.114;2023-04-25T02:53:42;99397.47;;;11.48;100.00
63190;BME280;49286;44.460;26.114;2023-04-25T02:56:07;99384.91;;;11.19;100.00
63190;BME280;49286;44.460;26.114;2023-04-25T02:58:32;99423.75;;;11.47;100.00
63190;BME280;49286;44.460;26.114;2023-04-25T03:00:58;99278.75;;;10.41;100.00
63190;BME280;49286;44.460;26.114;2023-04-25T03:03:23;99263.38;;;10.19;100.00
63190;BME280;49286;44.460;26.114;2023-04-25T03:05:50;99402.13;;;10.87;100.00
63190;BME280;49286;44.460;26.114;2023-04-25T03:08:16;99324.53;;;10.21;100.00
63190;BME280;49286;44.460;26.114;2023-04-25T03:10:42;99315.19;;;10.03;100.00
63190;BME280;49286;44.460;26.114;2023-04-25T03:13:08;99344.78;;;10.10;100.00
63190;BME280;49286;44.460;26.114;2023-04-25T03:15:35;99378.50;;;10.36;100.00
63190;BME280;49286;44.460;26.114;2023-04-25T03:18:01;99261.44;;;9.76;100.00
63190;BME280;49286;44.460;26.114;2023-04-25T03:20:26;99225.28;;;9.44;100.00
63190;BME280;49286;44.460;26.114;2023-04-25T03:22:52;99267.50;;;9.81;100.00
63190;BME280;49286;44.460;26.114;2023-04-25T03:25:18;99292.66;;;9.91;100.00
63190;BME280;49286;44.460;26.114;2023-04-25T03:27:43;99238.09;;;9.62;100.00
63190;BME280;49286;44.460;26.114;2023-04-25T03:30:09;99372.44;;;10.32;100.00
63190;BME280;49286;44.460;26.114;2023-04-25T03:32:35;99287.94;;;9.55;100.00
63190;BME280;49286;44.460;26.114;2023-04-25T03:35:00;99205.31;;;9.34;100.00
63190;BME280;49286;44.460;26.114;2023-04-25T03:37:26;99238.44;;;9.38;100.00
63190;BME280;49286;44.460;26.114;2023-04-25T03:39:51;99223.84;;;9.21;100.00
63190;BME280;49286;44.460;26.114;2023-04-25T03:42:17;99194.38;;;9.08;100.00
63190;BME280;49286;44.460;26.114;2023-04-25T03:44:43;99266.16;;;9.52;100.00
63190;BME280;49286;44.460;26.114;2023-04-25T03:47:08;99203.13;;;9.04;100.00
63190;BME280;49286;44.460;26.114;2023-04-25T03:49:34;99345.97;;;9.87;100.00
63190;BME280;49286;44.460;26.114;2023-04-25T03:52:01;99203.91;;;9.11;100.00
63190;BME280;49286;44.460;26.114;2023-04-25T03:54:26;99223.09;;;9.10;100.00
63190;BME280;49286;44.460;26.114;2023-04-25T03:56:52;99228.28;;;9.16;100.00
63190;BME280;49286;44.460;26.114;2023-04-25T03:59:17;99317.34;;;9.75;100.00
63190;BME280;49286;44.460;26.114;2023-04-25T04:01:43;99323.19;;;9.94;100.00
63190;BME280;49286;44.460;26.114;2023-04-25T04:04:08;99355.47;;;9.98;100.00
63190;BME280;49286;44.460;26.114;2023-04-25T04:06:34;99137.19;;;8.78;100.00
63190;BME280;49286;44.460;26.114;2023-04-25T04:08:59;99353.03;;;9.84;100.00
63190;BME280;49286;44.460;26.114;2023-04-25T04:11:25;99293.25;;;9.50;100.00
63190;BME280;49286;44.460;26.114;2023-04-25T04:13:51;99234.31;;;9.20;100.00
63190;BME280;49286;44.460;26.114;2023-04-25T04:16:16;99354.16;;;10.26;100.00
63190;BME280;49286;44.460;26.114;2023-04-25T04:18:42;99251.78;;;9.81;100.00
63190;BME280;49286;44.460;26.114;2023-04-25T04:21:07;99321.13;;;10.16;100.00
63190;BME280;49286;44.460;26.114;2023-04-25T04:23:33;99316.94;;;10.03;100.00
63190;BME280;49286;44.460;26.114;2023-04-25T04:25:58;99352.44;;;10.24;100.00
63190;BME280;49286;44.460;26.114;2023-04-25T04:28:24;99370.81;;;10.22;100.00
63190;BME280;49286;44.460;26.114;2023-04-25T04:30:51;99233.78;;;9.58;100.00
63190;BME280;49286;44.460;26.114;2023-04-25T04:33:17;99344.53;;;10.28;100.00
63190;BME280;49286;44.460;26.114;2023-04-25T04:35:45;99341.94;;;10.24;100.00
63190;BME280;49286;44.460;26.114;2023-04-25T04:38:12;99293.56;;;9.87;100.00
63190;BME280;49286;44.460;26.114;2023-04-25T04:40:40;99352.84;;;10.53;100.00
63190;BME280;49286;44.460;26.114;2023-04-25T04:43:06;99266.47;;;9.90;100.00
63190;BME280;49286;44.460;26.114;2023-04-25T04:45:34;99331.47;;;10.24;100.00
63190;BME280;49286;44.460;26.114;2023-04-25T04:47:59;99360.25;;;10.25;100.00
63190;BME280;49286;44.460;26.114;2023-04-25T04:50:26;99232.16;;;9.49;100.00
63190;BME280;49286;44.460;26.114;2023-04-25T04:52:53;99364.84;;;10.11;100.00
63190;BME280;49286;44.460;26.114;2023-04-25T04:55:20;99292.56;;;9.98;100.00
63190;BME280;49286;44.460;26.114;2023-04-25T04:57:45;99364.06;;;10.63;100.00
63190;BME280;49286;44.460;26.114;2023-04-25T05:00:11;99261.69;;;10.15;100.00
63190;BME280;49286;44.460;26.114;2023-04-25T05:02:38;99380.47;;;10.74;100.00
63190;BME280;49286;44.460;26.114;2023-04-25T05:05:04;99274.53;;;10.33;100.00
63190;BME280;49286;44.460;26.114;2023-04-25T05:07:30;99271.00;;;10.34;100.00
63190;BME280;49286;44.460;26.114;2023-04-25T05:09:55;99281.31;;;10.44;100.00
63190;BME280;49286;44.460;26.114;2023-04-25T05:12:21;99335.91;;;10.71;100.00
63190;BME280;49286;44.460;26.114;2023-04-25T05:14:46;99356.53;;;10.93;100.00
63190;BME280;49286;44.460;26.114;2023-04-25T05:17:12;99369.72;;;10.88;100.00
63190;BME280;49286;44.460;26.114;2023-04-25T05:19:38;99290.03;;;10.46;100.00
63190;BME280;49286;44.460;26.114;2023-04-25T05:22:04;99323.31;;;10.90;100.00
63190;BME280;49286;44.460;26.114;2023-04-25T05:24:30;99220.91;;;10.00;100.00
63190;BME280;49286;44.460;26.114;2023-04-25T05:26:56;99327.66;;;10.45;100.00
63190;BME280;49286;44.460;26.114;2023-04-25T05:29:21;99348.56;;;10.49;100.00
63190;BME280;49286;44.460;26.114;2023-04-25T05:31:47;99323.59;;;10.24;100.00
63190;BME280;49286;44.460;26.114;2023-04-25T05:34:13;99312.19;;;10.26;100.00
63190;BME280;49286;44.460;26.114;2023-04-25T05:36:39;99322.50;;;10.40;100.00
63190;BME280;49286;44.460;26.114;2023-04-25T05:39:04;99290.59;;;10.12;100.00
63190;BME280;49286;44.460;26.114;2023-04-25T05:41:31;99322.75;;;10.22;100.00
63190;BME280;49286;44.460;26.114;2023-04-25T05:43:56;99300.00;;;10.24;100.00
63190;BME280;49286;44.460;26.114;2023-04-25T05:46:22;99282.94;;;9.98;100.00
63190;BME280;49286;44.460;26.114;2023-04-25T05:48:47;99273.25;;;10.03;100.00
63190;BME280;49286;44.460;26.114;2023-04-25T05:51:13;99271.63;;;9.96;100.00
63190;BME280;49286;44.460;26.114;2023-04-25T05:53:38;99274.16;;;10.01;100.00
63190;BME280;49286;44.460;26.114;2023-04-25T05:56:04;99156.47;;;9.34;100.00
63190;BME280;49286;44.460;26.114;2023-04-25T05:58:29;99122.81;;;9.08;100.00
63190;BME280;49286;44.460;26.114;2023-04-25T06:00:55;99244.47;;;10.00;100.00
63190;BME280;49286;44.460;26.114;2023-04-25T06:03:21;99212.28;;;9.92;100.00
63190;BME280;49286;44.460;26.114;2023-04-25T06:05:46;99251.75;;;10.35;100.00
63190;BME280;49286;44.460;26.114;2023-04-25T06:08:12;99126.63;;;9.44;100.00
63190;BME280;49286;44.460;26.114;2023-04-25T06:10:37;99150.00;;;10.06;100.00
63190;BME280;49286;44.460;26.114;2023-04-25T06:13:04;99242.41;;;10.69;100.00
63190;BME280;49286;44.460;26.114;2023-04-25T06:15:30;99244.53;;;10.48;100.00
63190;BME280;49286;44.460;26.114;2023-04-25T06:17:58;99142.22;;;10.03;100.00
63190;BME280;49286;44.460;26.114;2023-04-25T06:20:24;99220.84;;;10.53;100.00
63190;BME280;49286;44.460;26.114;2023-04-25T06:22:51;99235.94;;;10.87;100.00
63190;BME280;49286;44.460;26.114;2023-04-25T06:25:19;99076.41;;;10.19;100.00
63190;BME280;49286;44.460;26.114;2023-04-25T06:27:45;99109.41;;;9.82;100.00
63190;BME280;49286;44.460;26.114;2023-04-25T06:30:11;99241.47;;;10.71;100.00
63190;BME280;49286;44.460;26.114;2023-04-25T06:32:38;99098.16;;;9.76;100.00
63190;BME280;49286;44.460;26.114;2023-04-25T06:35:04;99115.56;;;9.80;100.00
63190;BME280;49286;44.460;26.114;2023-04-25T06:37:30;99231.63;;;10.38;100.00
63190;BME280;49286;44.460;26.114;2023-04-25T06:39:56;99107.78;;;9.77;100.00
63190;BME280;49286;44.460;26.114;2023-04-25T06:42:21;99224.13;;;10.64;100.00
63190;BME280;49286;44.460;26.114;2023-04-25T06:44:47;99115.34;;;9.92;100.00
63190;BME280;49286;44.460;26.114;2023-04-25T06:47:13;99116.50;;;10.24;100.00
63190;BME280;49286;44.460;26.114;2023-04-25T06:49:38;99243.25;;;10.71;100.00
63190;BME280;49286;44.460;26.114;2023-04-25T06:52:04;99211.19;;;10.53;100.00
63190;BME280;49286;44.460;26.114;2023-04-25T06:54:29;99148.41;;;10.46;100.00
63190;BME280;49286;44.460;26.114;2023-04-25T06:56:55;99233.25;;;10.45;100.00
63190;BME280;49286;44.460;26.114;2023-04-25T06:59:21;99217.47;;;10.46;100.00
63190;BME280;49286;44.460;26.114;2023-04-25T07:01:47;99129.75;;;10.16;100.00
63190;BME280;49286;44.460;26.114;2023-04-25T07:04:12;99025.91;;;9.16;100.00
63190;BME280;49286;44.460;26.114;2023-04-25T07:06:38;99179.59;;;10.13;100.00
63190;BME280;49286;44.460;26.114;2023-04-25T07:09:08;99223.00;;;10.77;100.00
63190;BME280;49286;44.460;26.114;2023-04-25T07:11:35;99174.06;;;10.30;100.00
63190;BME280;49286;44.460;26.114;2023-04-25T07:14:01;99200.97;;;10.41;100.00
63190;BME280;49286;44.460;26.114;2023-04-25T07:16:26;99115.22;;;10.00;100.00
63190;BME280;49286;44.460;26.114;2023-04-25T07:18:52;99097.31;;;9.75;100.00
63190;BME280;49286;44.460;26.114;2023-04-25T07:21:17;99100.09;;;10.14;100.00
63190;BME280;49286;44.460;26.114;2023-04-25T07:23:43;99198.06;;;10.56;100.00
63190;BME280;49286;44.460;26.114;2023-04-25T07:26:08;99221.69;;;10.53;100.00
63190;BME280;49286;44.460;26.114;2023-04-25T07:28:40;99035.94;;;9.42;100.00
63190;BME280;49286;44.460;26.114;2023-04-25T07:31:21;98988.97;;;9.33;100.00
63190;BME280;49286;44.460;26.114;2023-04-25T07:33:49;99146.03;;;10.35;100.00
63190;BME280;49286;44.460;26.114;2023-04-25T07:36:15;99221.31;;;10.73;100.00
63190;BME280;49286;44.460;26.114;2023-04-25T07:38:42;99131.38;;;10.22;100.00
63190;BME280;49286;44.460;26.114;2023-04-25T07:41:09;99193.66;;;10.57;100.00
63190;BME280;49286;44.460;26.114;2023-04-25T07:43:36;99164.13;;;10.47;100.00
63190;BME280;49286;44.460;26.114;2023-04-25T07:46:03;99199.88;;;10.95;100.00
63190;BME280;49286;44.460;26.114;2023-04-25T07:48:30;99144.38;;;10.28;100.00
63190;BME280;49286;44.460;26.114;2023-04-25T07:51:01;99140.81;;;10.33;100.00
63190;BME280;49286;44.460;26.114;2023-04-25T07:53:31;99095.69;;;10.16;100.00
63190;BME280;49286;44.460;26.114;2023-04-25T07:56:00;99186.06;;;10.87;100.00
63190;BME280;49286;44.460;26.114;2023-04-25T07:58:25;99084.94;;;10.30;100.00
63190;BME280;49286;44.460;26.114;2023-04-25T08:00:51;99168.38;;;10.95;100.00
63190;BME280;49286;44.460;26.114;2023-04-25T08:03:16;99060.38;;;10.74;100.00
63190;BME280;49286;44.460;26.114;2023-04-25T08:05:42;99131.53;;;11.38;100.00
63190;BME280;49286;44.460;26.114;2023-04-25T08:08:07;99061.03;;;10.84;100.00
63190;BME280;49286;44.460;26.114;2023-04-25T08:10:33;99055.31;;;11.04;100.00
63190;BME280;49286;44.460;26.114;2023-04-25T08:12:59;99162.22;;;11.72;100.00
63190;BME280;49286;44.460;26.114;2023-04-25T08:15:26;99162.59;;;11.94;100.00
63190;BME280;49286;44.460;26.114;2023-04-25T08:17:52;99138.22;;;11.86;100.00
63190;BME280;49286;44.460;26.114;2023-04-25T08:20:18;99112.16;;;11.77;100.00
63190;BME280;49286;44.460;26.114;2023-04-25T08:22:44;99090.50;;;11.69;100.00
63190;BME280;49286;44.460;26.114;2023-04-25T08:25:09;99138.09;;;11.92;100.00
63190;BME280;49286;44.460;26.114;2023-04-25T08:27:35;99173.28;;;12.21;100.00
63190;BME280;49286;44.460;26.114;2023-04-25T08:30:02;99152.47;;;12.12;100.00
63190;BME280;49286;44.460;26.114;2023-04-25T08:32:28;99144.69;;;12.09;100.00
63190;BME280;49286;44.460;26.114;2023-04-25T08:34:54;99169.47;;;12.31;100.00
63190;BME280;49286;44.460;26.114;2023-04-25T08:37:20;99174.19;;;12.20;100.00
63190;BME280;49286;44.460;26.114;2023-04-25T08:39:46;99050.50;;;11.57;100.00
63190;BME280;49286;44.460;26.114;2023-04-25T08:42:14;99165.41;;;11.85;100.00
63190;BME280;49286;44.460;26.114;2023-04-25T08:44:40;99177.56;;;11.91;100.00
63190;BME280;49286;44.460;26.114;2023-04-25T08:47:06;99166.53;;;12.11;100.00
63190;BME280;49286;44.460;26.114;2023-04-25T08:49:32;99074.88;;;11.62;100.00
63190;BME280;49286;44.460;26.114;2023-04-25T08:52:04;99068.25;;;11.12;100.00
63190;BME280;49286;44.460;26.114;2023-04-25T08:54:32;99165.16;;;11.60;100.00
63190;BME280;49286;44.460;26.114;2023-04-25T08:57:02;99183.25;;;12.08;100.00
63190;BME280;49286;44.460;26.114;2023-04-25T08:59:28;99180.00;;;12.31;100.00
63190;BME280;49286;44.460;26.114;2023-04-25T09:01:54;99058.22;;;11.29;100.00
63190;BME280;49286;44.460;26.114;2023-04-25T09:04:20;99166.63;;;11.72;100.00
63190;BME280;49286;44.460;26.114;2023-04-25T09:06:46;99130.53;;;11.78;100.00
63190;BME280;49286;44.460;26.114;2023-04-25T09:09:12;99170.31;;;12.33;100.00
63190;BME280;49286;44.460;26.114;2023-04-25T09:11:38;99068.91;;;11.92;100.00
63190;BME280;49286;44.460;26.114;2023-04-25T09:14:30;99183.91;;;12.80;100.00
63190;BME280;49286;44.460;26.114;2023-04-25T09:19:25;99183.94;;;12.48;100.00
63190;BME280;49286;44.460;26.114;2023-04-25T09:22:00;99177.97;;;12.74;100.00
63190;BME280;49286;44.460;26.114;2023-04-25T09:24:34;99096.06;;;11.91;100.00
63190;BME280;49286;44.460;26.114;2023-04-25T09:27:06;99090.31;;;11.75;100.00
63190;BME280;49286;44.460;26.114;2023-04-25T09:29:36;99062.00;;;11.86;100.00
63190;BME280;49286;44.460;26.114;2023-04-25T09:32:21;99186.31;;;12.88;100.00
63190;BME280;49286;44.460;26.114;2023-04-25T09:34:49;99044.53;;;12.16;100.00
63190;BME280;49286;44.460;26.114;2023-04-25T09:39:46;99070.06;;;12.44;100.00
63190;BME280;49286;44.460;26.114;2023-04-25T09:42:14;99188.22;;;13.13;100.00
63190;BME280;49286;44.460;26.114;2023-04-25T09:44:45;99143.50;;;13.11;100.00
63190;BME280;49286;44.460;26.114;2023-04-25T09:47:12;99067.28;;;12.78;100.00
63190;BME280;49286;44.460;26.114;2023-04-25T09:49:42;99137.44;;;13.37;100.00
63190;BME280;49286;44.460;26.114;2023-04-25T09:52:08;99078.28;;;13.19;100.00
63190;BME280;49286;44.460;26.114;2023-04-25T09:54:34;99178.41;;;13.47;100.00
63190;BME280;49286;44.460;26.114;2023-04-25T09:59:39;99190.31;;;13.31;100.00
63190;BME280;49286;44.460;26.114;2023-04-25T10:02:08;99080.47;;;12.77;100.00
63190;BME280;49286;44.460;26.114;2023-04-25T10:04:35;99184.91;;;13.36;100.00
63190;BME280;49286;44.460;26.114;2023-04-25T10:07:08;99170.41;;;13.77;100.00
63190;BME280;49286;44.460;26.114;2023-04-25T10:09:37;99171.28;;;13.78;100.00
63190;BME280;49286;44.460;26.114;2023-04-25T10:12:04;99132.44;;;13.56;100.00
63190;BME280;49286;44.460;26.114;2023-04-25T10:14:31;99070.38;;;13.72;100.00
63190;BME280;49286;44.460;26.114;2023-04-25T10:16:57;99179.31;;;13.73;100.00
63190;BME280;49286;44.460;26.114;2023-04-25T10:19:24;99052.72;;;13.23;100.00
63190;BME280;49286;44.460;26.114;2023-04-25T10:21:58;99179.97;;;14.06;100.00
63190;BME280;49286;44.460;26.114;2023-04-25T10:24:27;99192.25;;;13.54;100.00
63190;BME280;49286;44.460;26.114;2023-04-25T10:26:53;99055.56;;;13.15;100.00
63190;BME280;49286;44.460;26.114;2023-04-25T10:29:24;99060.69;;;12.92;100.00
63190;BME280;49286;44.460;26.114;2023-04-25T10:31:49;99151.06;;;14.03;100.00
63190;BME280;49286;44.460;26.114;2023-04-25T10:34:16;99155.91;;;14.15;100.00
63190;BME280;49286;44.460;26.114;2023-04-25T10:36:42;99135.44;;;14.47;100.00
63190;BME280;49286;44.460;26.114;2023-04-25T10:39:08;99047.34;;;13.78;100.00
63190;BME280;49286;44.460;26.114;2023-04-25T10:41:47;99046.31;;;14.07;100.00
63190;BME280;49286;44.460;26.114;2023-04-25T10:44:16;99168.63;;;14.29;100.00
63190;BME280;49286;44.460;26.114;2023-04-25T10:46:44;99079.84;;;13.78;100.00
63190;BME280;49286;44.460;26.114;2023-04-25T10:49:09;99187.13;;;14.53;100.00
63190;BME280;49286;44.460;26.114;2023-04-25T10:51:36;99179.97;;;14.82;100.00
63190;BME280;49286;44.460;26.114;2023-04-25T10:54:04;99155.47;;;14.78;100.00
63190;BME280;49286;44.460;26.114;2023-04-25T10:56:41;99195.13;;;14.76;100.00
63190;BME280;49286;44.460;26.114;2023-04-25T10:59:14;99187.31;;;14.97;100.00
63190;BME280;49286;44.460;26.114;2023-04-25T11:02:14;99194.56;;;14.42;100.00
63190;BME280;49286;44.460;26.114;2023-04-25T11:04:33;99181.56;;;14.86;100.00
63190;BME280;49286;44.460;26.114;2023-04-25T11:09:33;99183.56;;;14.79;100.00
63190;BME280;49286;44.460;26.114;2023-04-25T11:11:59;99114.84;;;14.59;100.00
63190;BME280;49286;44.460;26.114;2023-04-25T11:14:26;99214.22;;;14.60;100.00
63190;BME280;49286;44.460;26.114;2023-04-25T11:16:59;99093.91;;;14.52;100.00
63190;BME280;49286;44.460;26.114;2023-04-25T11:19:25;99184.38;;;15.05;100.00
63190;BME280;49286;44.460;26.114;2023-04-25T11:21:55;99102.56;;;14.80;100.00
63190;BME280;49286;44.460;26.114;2023-04-25T11:24:31;99142.44;;;14.48;100.00
63190;BME280;49286;44.460;26.114;2023-04-25T11:27:01;99138.34;;;14.88;100.00
63190;BME280;49286;44.460;26.114;2023-04-25T11:29:31;99203.75;;;15.51;100.00
63190;BME280;49286;44.460;26.114;2023-04-25T11:31:57;99249.19;;;15.60;100.00
63190;BME280;49286;44.460;26.114;2023-04-25T11:34:24;99114.59;;;15.10;100.00
63190;BME280;49286;44.460;26.114;2023-04-25T11:36:51;99121.00;;;14.81;100.00
63190;BME280;49286;44.460;26.114;2023-04-25T11:39:18;99211.22;;;15.39;100.00
63190;BME280;49286;44.460;26.114;2023-04-25T11:41:44;99100.75;;;15.26;100.00
63190;BME280;49286;44.460;26.114;2023-04-25T11:44:10;99217.09;;;15.70;100.00
63190;BME280;49286;44.460;26.114;2023-04-25T11:46:35;99212.69;;;15.92;100.00
63190;BME280;49286;44.460;26.114;2023-04-25T11:49:01;99219.72;;;15.70;100.00
63190;BME280;49286;44.460;26.114;2023-04-25T11:51:27;99227.56;;;15.95;100.00
63190;BME280;49286;44.460;26.114;2023-04-25T11:53:52;99229.09;;;16.00;100.00
63190;BME280;49286;44.460;26.114;2023-04-25T11:56:18;99226.50;;;15.55;100.00
63190;BME280;49286;44.460;26.114;2023-04-25T12:01:28;99230.88;;;15.10;100.00
63190;BME280;49286;44.460;26.114;2023-04-25T12:03:54;99226.25;;;15.39;100.00
63190;BME280;49286;44.460;26.114;2023-04-25T12:06:19;99215.88;;;15.33;100.00
63190;BME280;49286;44.460;26.114;2023-04-25T12:09:04;99139.38;;;14.84;100.00
63190;BME280;49286;44.460;26.114;2023-04-25T12:11:41;99251.75;;;15.16;100.00
63190;BME280;49286;44.460;26.114;2023-04-25T12:14:07;99188.78;;;14.57;100.00
63190;BME280;49286;44.460;26.114;2023-04-25T12:16:46;99230.59;;;13.05;100.00
63190;BME280;49286;44.460;26.114;2023-04-25T12:19:16;99245.78;;;13.56;100.00
63190;BME280;49286;44.460;26.114;2023-04-25T12:21:43;99267.88;;;13.50;100.00
63190;BME280;49286;44.460;26.114;2023-04-25T12:24:24;99274.34;;;12.78;100.00
63190;BME280;49286;44.460;26.114;2023-04-25T12:26:52;99136.31;;;12.27;100.00
63190;BME280;49286;44.460;26.114;2023-04-25T12:29:23;99238.09;;;12.56;100.00
63190;BME280;49286;44.460;26.114;2023-04-25T12:31:50;99212.47;;;12.63;100.00
63190;BME280;49286;44.460;26.114;2023-04-25T12:34:17;99178.94;;;12.70;100.00
63190;BME280;49286;44.460;26.114;2023-04-25T12:36:43;99147.50;;;12.65;100.00
63190;BME280;49286;44.460;26.114;2023-04-25T12:39:08;99167.69;;;12.94;100.00
63190;BME280;49286;44.460;26.114;2023-04-25T12:41:34;99169.84;;;12.81;100.00
63190;BME280;49286;44.460;26.114;2023-04-25T12:44:00;99111.09;;;12.50;100.00
63190;BME280;49286;44.460;26.114;2023-04-25T12:46:25;99072.34;;;12.25;100.00
63190;BME280;49286;44.460;26.114;2023-04-25T12:48:51;99164.47;;;12.84;100.00
63190;BME280;49286;44.460;26.114;2023-04-25T12:51:16;99147.09;;;12.79;100.00